Time;durP1;ratioP1;P1;durP2;ratioP2;P2;SDS_P1;SDS_P2;PMS_P1;PMS_P2;Temp;Humidity;BMP_temperature;BMP_pressure;BME280_temperature;BME280_humidity;BME280_pressure;Samples;Min_cycle;Max_cycle;Signal;HPM_P1;HPM_P2
2022/01/02 00:02:59;;;;;;;48.90;26.20;;;;;;;10.10;100.00;101131.84;3711724;77;99225;-88
2022/01/02 00:08:09;;;;;;;47.70;25.20;;;;;;;10.07;100.00;101116.04;3734584;77;98952;-88
2022/01/02 00:13:23;;;;;;;52.73;27.93;;;;;;;10.05;100.00;101107.36;3700408;78;99656;-88
2022/01/02 00:18:28;;;;;;;44.97;24.93;;;;;;;10.02;100.00;101100.59;3694235;77;123678;-89
2022/01/02 00:23:33;;;;;;;42.88;24.95;;;;;;;9.99;100.00;101080.69;3684767;78;99521;-89
2022/01/02 00:28:33;;;;;;;37.42;21.42;;;;;;;9.94;100.00;101058.97;3685483;78;99344;-86
2022/01/02 00:33:35;;;;;;;36.70;20.90;;;;;;;9.92;100.00;101075.59;3687277;78;99327;-88
2022/01/02 00:38:38;;;;;;;43.15;22.02;;;;;;;9.87;100.00;101064.27;3677950;77;99416;-88
2022/01/02 00:43:48;;;;;;;41.98;20.92;;;;;;;9.87;100.00;101071.74;3736936;77;99528;-87
2022/01/02 00:48:54;;;;;;;35.58;19.37;;;;;;;9.85;100.00;101072.66;3724997;77;99494;-89
2022/01/02 00:53:58;;;;;;;41.40;22.13;;;;;;;9.83;100.00;101070.28;3690758;78;99666;-87
2022/01/02 00:59:00;;;;;;;38.33;18.70;;;;;;;9.81;100.00;101072.58;3677211;77;99530;-88
2022/01/02 01:04:02;;;;;;;40.23;18.32;;;;;;;9.79;100.00;101065.27;3738278;77;98901;-87
2022/01/02 01:09:05;;;;;;;34.48;19.65;;;;;;;9.81;100.00;101054.70;3741937;77;99482;-88
2022/01/02 01:14:06;;;;;;;37.48;18.95;;;;;;;9.78;100.00;101059.56;3762761;77;99139;-87
2022/01/02 01:19:07;;;;;;;30.87;17.23;;;;;;;9.76;100.00;101056.95;3756367;77;99332;-86
2022/01/02 01:24:08;;;;;;;35.80;18.47;;;;;;;9.73;100.00;101067.27;3794564;76;99186;-88
2022/01/02 01:29:09;;;;;;;33.47;17.87;;;;;;;9.71;100.00;101048.97;3785133;75;98789;-87
2022/01/02 01:34:10;;;;;;;29.20;16.13;;;;;;;9.69;100.00;101038.32;3750673;77;97995;-87
2022/01/02 01:39:10;;;;;;;31.03;17.10;;;;;;;9.68;100.00;101027.11;3738837;76;99351;-88
2022/01/02 01:49:30;;;;;;;43.04;18.82;;;;;;;9.70;100.00;101024.02;3780291;76;99671;-86
2022/01/02 01:54:31;;;;;;;33.50;17.42;;;;;;;9.69;100.00;101028.70;3762361;77;99491;-89
2022/01/02 01:59:32;;;;;;;34.07;17.37;;;;;;;9.67;100.00;101016.47;3774086;76;99462;-87
2022/01/02 02:04:33;;;;;;;31.60;16.20;;;;;;;9.68;100.00;101020.80;3763570;77;33117;-88
2022/01/02 02:09:52;;;;;;;29.97;17.10;;;;;;;9.68;100.00;101004.31;3764342;75;99141;-87
2022/01/02 02:14:39;;;;;;;36.45;18.05;;;;;;;9.70;100.00;100975.91;3810972;76;98952;-88
2022/01/02 02:19:39;;;;;;;31.10;16.23;;;;;;;9.68;100.00;100988.63;3811657;76;99377;-88
2022/01/02 02:24:41;;;;;;;28.23;14.43;;;;;;;9.66;100.00;100978.55;3809555;75;99123;-87
2022/01/02 02:29:42;;;;;;;27.22;14.83;;;;;;;9.67;100.00;100960.13;3764981;75;99329;-86
2022/01/02 02:34:44;;;;;;;29.13;15.90;;;;;;;9.64;100.00;100943.77;3804349;75;26149;-87
2022/01/02 02:39:45;;;;;;;27.43;15.03;;;;;;;9.61;100.00;100923.89;3805723;76;99402;-87
2022/01/02 02:44:47;;;;;;;29.83;15.97;;;;;;;9.58;100.00;100915.55;3799026;75;99508;-87
2022/01/02 02:49:47;;;;;;;25.20;14.80;;;;;;;9.56;100.00;100924.73;3716818;78;99345;-87
2022/01/02 02:54:49;;;;;;;27.57;14.93;;;;;;;9.53;100.00;100910.33;3648009;79;99640;-87
2022/01/02 02:59:49;;;;;;;30.57;14.90;;;;;;;9.49;100.00;100914.37;3747253;77;99315;-87
2022/01/02 03:04:50;;;;;;;26.70;14.23;;;;;;;9.47;100.00;100910.38;3800537;76;27749;-87
2022/01/02 03:09:53;;;;;;;26.00;14.80;;;;;;;9.43;100.00;100907.56;3652170;77;99385;-88
2022/01/02 03:14:54;;;;;;;23.27;13.07;;;;;;;9.39;100.00;100890.19;3594033;79;99061;-87
2022/01/02 03:19:54;;;;;;;29.10;12.63;;;;;;;9.34;100.00;100866.34;3679838;78;99670;-88
2022/01/02 03:24:55;;;;;;;23.77;12.33;;;;;;;9.31;100.00;100851.94;3684060;79;99304;-87
2022/01/02 03:29:56;;;;;;;27.15;14.25;;;;;;;9.26;100.00;100841.25;3679249;79;99334;-86
2022/01/02 03:34:57;;;;;;;25.03;13.63;;;;;;;9.22;100.00;100814.27;3648974;79;32733;-86
2022/01/02 03:39:58;;;;;;;25.57;13.47;;;;;;;9.17;100.00;100802.20;3714101;78;99316;-86
2022/01/02 03:44:59;;;;;;;26.93;12.63;;;;;;;9.14;100.00;100800.16;3694361;78;98951;-87
2022/01/02 03:50:03;;;;;;;26.17;12.20;;;;;;;9.11;100.00;100797.55;3707193;78;99373;-87
2022/01/02 03:55:05;;;;;;;23.70;12.60;;;;;;;9.09;100.00;100793.56;3733852;78;99210;-86
2022/01/02 04:00:11;;;;;;;25.77;13.43;;;;;;;9.04;100.00;100786.41;3755852;77;99482;-87
2022/01/02 04:05:14;;;;;;;28.15;12.63;;;;;;;9.01;100.00;100787.70;3778522;77;34882;-87
2022/01/02 04:10:18;;;;;;;27.37;12.95;;;;;;;8.97;100.00;100781.33;3753389;77;99268;-87
2022/01/02 04:15:19;;;;;;;22.13;12.45;;;;;;;8.95;100.00;100776.78;3755952;77;98967;-86
2022/01/02 04:20:20;;;;;;;20.87;12.00;;;;;;;8.94;100.00;100788.92;3752907;77;99319;-86
2022/01/02 04:25:21;;;;;;;25.27;12.40;;;;;;;8.90;100.00;100768.23;3731842;77;99215;-87
2022/01/02 04:30:22;;;;;;;23.67;12.63;;;;;;;8.87;100.00;100748.38;3696024;78;99570;-88
2022/01/02 04:35:23;;;;;;;25.00;13.50;;;;;;;8.82;100.00;100732.19;3727336;78;99298;-86
2022/01/02 04:40:24;;;;;;;21.40;11.67;;;;;;;8.79;100.00;100732.88;3719804;77;99415;-86
2022/01/02 04:45:25;;;;;;;23.30;12.00;;;;;;;8.77;100.00;100723.45;3774762;77;99051;-87
2022/01/02 04:50:26;;;;;;;24.87;12.67;;;;;;;8.76;100.00;100701.25;3748037;77;99195;-87
2022/01/02 04:55:27;;;;;;;26.63;13.20;;;;;;;8.72;100.00;100685.30;3749964;77;99594;-87
2022/01/02 05:00:28;;;;;;;26.90;14.67;;;;;;;8.71;100.00;100680.95;3720615;78;99209;-86
2022/01/02 05:05:29;;;;;;;30.67;13.87;;;;;;;8.69;100.00;100686.01;3733222;77;99243;-85
2022/01/02 05:10:30;;;;;;;22.97;12.33;;;;;;;8.67;100.00;100681.47;3721084;78;98975;-86
2022/01/02 05:15:31;;;;;;;20.62;10.30;;;;;;;8.68;100.00;100663.25;3682634;78;99014;-87
2022/01/02 05:20:32;;;;;;;27.43;11.90;;;;;;;8.67;100.00;100659.52;3655973;79;99385;-86
2022/01/02 05:25:32;;;;;;;18.90;10.83;;;;;;;8.69;100.00;100642.11;3664589;79;99164;-87
2022/01/02 05:30:34;;;;;;;17.80;9.67;;;;;;;8.69;100.00;100635.25;3673783;79;99281;-87
2022/01/02 05:35:35;;;;;;;19.40;10.23;;;;;;;8.67;100.00;100654.80;3621852;79;99285;-85
2022/01/02 05:40:36;;;;;;;21.60;10.13;;;;;;;8.62;100.00;100641.36;3688845;79;99146;-87
2022/01/02 05:45:37;;;;;;;18.57;10.07;;;;;;;8.59;100.00;100640.73;3666828;78;99416;-87
2022/01/02 05:50:37;;;;;;;21.33;9.53;;;;;;;8.57;100.00;100628.52;3660366;78;99471;-87
2022/01/02 05:55:38;;;;;;;20.77;9.03;;;;;;;8.53;100.00;100631.75;3650644;78;98868;-87
2022/01/02 06:00:39;;;;;;;18.60;8.60;;;;;;;8.53;100.00;100631.75;3636168;79;98991;-87
2022/01/02 06:05:40;;;;;;;20.27;8.43;;;;;;;8.51;100.00;100623.09;3628044;80;98876;-87
2022/01/02 06:10:41;;;;;;;18.87;8.20;;;;;;;8.53;100.00;100614.73;3605964;80;98922;-88
2022/01/02 06:15:42;;;;;;;17.93;9.00;;;;;;;8.50;100.00;100589.37;3631465;79;99139;-88
2022/01/02 06:20:43;;;;;;;19.42;7.80;;;;;;;8.49;100.00;100575.45;3711021;77;98927;-88
2022/01/02 06:25:45;;;;;;;15.90;7.60;;;;;;;8.49;100.00;100565.04;3770662;78;98793;-87
2022/01/02 06:30:46;;;;;;;16.23;7.53;;;;;;;8.49;100.00;100572.70;3764589;77;98803;-89
2022/01/02 06:35:49;;;;;;;17.00;8.57;;;;;;;8.48;100.00;100584.03;3768948;77;98850;-87
2022/01/02 06:40:50;;;;;;;15.93;8.25;;;;;;;8.44;100.00;100594.12;3684656;78;98815;-87
2022/01/02 06:45:51;;;;;;;15.10;6.90;;;;;;;8.41;100.00;100583.88;3768021;76;98647;-87
2022/01/02 06:50:52;;;;;;;21.43;9.47;;;;;;;8.40;100.00;100560.36;3738374;77;99036;-88
2022/01/02 06:55:53;;;;;;;22.80;9.17;;;;;;;8.39;100.00;100554.66;3751166;77;98854;-88
2022/01/02 07:00:54;;;;;;;14.10;6.77;;;;;;;8.36;100.00;100564.97;3748484;77;99198;-88
2022/01/02 07:05:55;;;;;;;16.00;7.73;;;;;;;8.35;100.00;100540.08;3769081;77;99156;-87
2022/01/02 07:10:57;;;;;;;16.47;8.20;;;;;;;8.31;100.00;100534.52;3713120;78;98911;-87
2022/01/02 07:15:57;;;;;;;18.47;7.63;;;;;;;8.31;100.00;100536.45;3717530;78;98923;-88
2022/01/02 07:20:58;;;;;;;16.57;7.53;;;;;;;8.26;100.00;100527.94;3667813;79;98831;-87
2022/01/02 07:25:59;;;;;;;17.57;8.73;;;;;;;8.22;100.00;100521.58;3689954;78;98921;-87
2022/01/02 07:31:00;;;;;;;18.30;8.10;;;;;;;8.19;100.00;100518.14;3672812;79;98890;-87
2022/01/02 07:36:01;;;;;;;17.37;8.97;;;;;;;8.16;100.00;100513.39;3665872;79;99223;-87
2022/01/02 07:41:03;;;;;;;19.00;9.40;;;;;;;8.14;100.00;100508.05;3679374;79;98518;-87
2022/01/02 07:46:04;;;;;;;21.48;9.38;;;;;;;8.11;100.00;100504.64;3615672;80;99071;-87
2022/01/02 07:51:07;;;;;;;21.83;10.37;;;;;;;8.10;100.00;100490.72;3673556;79;99110;-87
2022/01/02 07:56:08;;;;;;;15.90;8.65;;;;;;;8.08;100.00;100474.63;3665843;80;99159;-84
2022/01/02 08:01:09;;;;;;;19.40;9.87;;;;;;;8.09;100.00;100457.61;3684436;79;98958;-84
2022/01/02 08:06:10;;;;;;;20.83;9.70;;;;;;;8.08;100.00;100468.37;3683982;79;98850;-85
2022/01/02 08:11:15;;;;;;;19.30;9.67;;;;;;;8.08;100.00;100460.92;3592612;80;98719;-85
2022/01/02 08:16:15;;;;;;;18.57;8.70;;;;;;;8.11;100.00;100452.55;3673475;79;98576;-87
2022/01/02 08:21:16;;;;;;;17.10;9.13;;;;;;;8.11;100.00;100445.14;3702547;78;98941;-87
2022/01/02 08:26:17;;;;;;;15.03;8.23;;;;;;;8.16;100.00;100441.31;3673462;76;99168;-88
2022/01/02 08:31:19;;;;;;;19.07;8.90;;;;;;;8.17;100.00;100425.88;3706587;77;99144;-87
2022/01/02 08:36:20;;;;;;;17.63;8.20;;;;;;;8.21;100.00;100402.11;3677805;78;99266;-87
2022/01/02 08:41:20;;;;;;;16.97;7.93;;;;;;;8.28;100.00;100400.09;3701225;77;98851;-88
2022/01/02 08:46:21;;;;;;;16.93;7.90;;;;;;;8.34;100.00;100403.53;3752984;77;31562;-87
2022/01/02 08:51:22;;;;;;;16.30;7.97;;;;;;;8.40;100.00;100404.82;3756399;77;99068;-89
2022/01/02 08:56:23;;;;;;;15.97;8.10;;;;;;;8.48;100.00;100435.36;3742097;76;98936;-95
2022/01/02 09:01:24;;;;;;;20.63;8.53;;;;;;;8.54;100.00;100413.90;3701161;77;99221;-96
2022/01/02 09:06:25;;;;;;;19.60;8.73;;;;;;;8.61;100.00;100416.80;3682031;78;99228;-94
2022/01/02 09:11:27;;;;;;;16.12;7.85;;;;;;;8.67;100.00;100420.22;3731900;76;99257;-89
2022/01/02 09:16:28;;;;;;;18.32;8.80;;;;;;;8.71;100.00;100415.60;3739983;77;32849;-89
2022/01/02 09:21:29;;;;;;;16.80;7.90;;;;;;;8.77;100.00;100410.63;3719757;76;99039;-88
2022/01/02 09:26:30;;;;;;;15.90;8.00;;;;;;;8.80;100.00;100395.59;3667326;79;99079;-87
2022/01/02 09:31:31;;;;;;;13.70;6.57;;;;;;;8.85;100.00;100392.55;3746209;77;99154;-89
2022/01/02 09:36:32;;;;;;;13.90;7.10;;;;;;;8.91;100.00;100387.52;3758874;77;99107;-89
2022/01/02 09:41:33;;;;;;;14.97;7.20;;;;;;;8.94;100.00;100392.30;3719018;78;99105;-87
2022/01/02 09:46:38;;;;;;;13.40;7.20;;;;;;;8.99;100.00;100373.55;3696028;78;35490;-89
2022/01/02 09:51:39;;;;;;;15.45;8.18;;;;;;;9.00;100.00;100377.10;3693045;78;98887;-89
2022/01/02 09:56:40;;;;;;;15.83;7.67;;;;;;;9.04;100.00;100358.15;3690850;77;98952;-91
2022/01/02 10:01:43;;;;;;;14.13;8.57;;;;;;;9.08;100.00;100344.47;3683576;77;98971;-89
2022/01/02 10:06:50;;;;;;;14.65;7.20;;;;;;;9.12;100.00;100339.27;3683837;78;99441;-90
2022/01/02 10:11:50;;;;;;;16.73;7.92;;;;;;;9.17;100.00;100339.52;3670754;77;99035;-90
2022/01/02 10:16:51;;;;;;;18.57;8.13;;;;;;;9.22;100.00;100312.52;3687519;78;34926;-90
2022/01/02 10:21:57;;;;;;;16.33;7.27;;;;;;;9.26;100.00;100305.14;3689580;77;98811;-86
2022/01/02 10:27:13;;;;;;;17.05;7.92;;;;;;;9.31;100.00;100302.64;3705230;78;98793;-87
2022/01/02 10:32:32;;;;;;;14.70;7.70;;;;;;;9.35;100.00;100285.07;3696202;77;99031;-89
2022/01/02 10:37:33;;;;;;;14.30;7.03;;;;;;;9.40;100.00;100287.49;3713428;78;99346;-87
2022/01/02 10:42:42;;;;;;;16.83;7.73;;;;;;;9.44;100.00;100279.30;3706559;76;99433;-91
2022/01/02 10:47:44;;;;;;;13.90;7.28;;;;;;;9.46;100.00;100261.84;3721944;78;98984;-90
2022/01/02 10:52:47;;;;;;;14.95;6.72;;;;;;;9.49;100.00;100256.99;3751481;77;98542;-91
2022/01/02 10:57:51;;;;;;;16.25;6.95;;;;;;;9.44;100.00;100240.84;3666083;79;98885;-90
2022/01/02 11:02:53;;;;;;;16.50;8.10;;;;;;;9.56;100.00;100250.20;3701306;77;98873;-90
2022/01/02 11:08:01;;;;;;;16.40;8.30;;;;;;;9.59;100.00;100255.74;3729716;77;99105;-88
2022/01/02 11:13:05;;;;;;;14.30;7.15;;;;;;;9.63;100.00;100242.05;3758003;77;99005;-93
2022/01/02 11:18:06;;;;;;;15.13;6.65;;;;;;;9.70;100.00;100215.44;3714609;78;99407;-93
2022/01/02 11:23:15;;;;;;;12.80;6.23;;;;;;;9.80;100.00;100218.89;3665254;78;36142;-90
2022/01/02 11:28:36;;;;;;;12.43;6.67;;;;;;;9.88;100.00;100207.39;3685954;78;98847;-93
2022/01/02 11:33:40;;;;;;;13.03;7.70;;;;;;;9.94;100.00;100210.00;3686655;79;98886;-91
2022/01/02 11:38:43;;;;;;;17.80;7.75;;;;;;;9.99;100.00;100193.97;3682428;78;98917;-89
2022/01/02 11:43:53;;;;;;;15.53;7.28;;;;;;;10.04;100.00;100180.48;3713125;78;99153;-91
2022/01/02 11:49:13;;;;;;;18.40;8.37;;;;;;;10.11;100.00;100173.66;3705631;79;99233;-90
2022/01/02 11:54:43;;;;;;;14.90;7.22;;;;;;;10.16;100.00;100168.62;3722461;78;99259;-92
2022/01/02 11:59:53;;;;;;;14.50;7.62;;;;;;;10.19;100.00;100157.45;3709749;77;99264;-92
2022/01/02 12:10:20;;;;;;;16.23;7.28;;;;;;;10.19;100.00;100151.34;3722924;77;99274;-93
2022/01/02 12:15:21;;;;;;;14.15;6.67;;;;;;;10.18;100.00;100150.34;3679225;78;99467;-94
2022/01/02 12:20:22;;;;;;;14.87;7.07;;;;;;;10.16;100.00;100139.74;3706678;78;99072;-92
2022/01/02 12:25:25;;;;;;;15.83;7.70;;;;;;;10.17;100.00;100132.27;3737283;78;99684;-91
2022/01/02 12:30:26;;;;;;;14.95;7.67;;;;;;;10.18;100.00;100144.84;3706364;78;99212;-92
2022/01/02 12:35:40;;;;;;;14.57;6.93;;;;;;;10.21;100.00;100131.14;3676828;79;99595;-92
2022/01/02 12:40:40;;;;;;;16.48;8.30;;;;;;;10.23;100.00;100118.36;3753321;77;99094;-94
2022/01/02 12:45:41;;;;;;;23.77;10.20;;;;;;;10.23;100.00;100117.79;3706259;78;99589;-91
2022/01/02 12:50:43;;;;;;;17.03;9.23;;;;;;;10.09;100.00;100088.80;3709471;78;99632;-92
2022/01/02 12:55:47;;;;;;;22.20;10.67;;;;;;;10.09;100.00;100088.80;3727693;78;99184;-94
2022/01/02 13:00:51;;;;;;;22.75;11.80;;;;;;;10.19;100.00;100103.22;3738203;76;99485;-92
2022/01/02 13:05:52;;;;;;;18.30;9.77;;;;;;;10.20;100.00;100089.66;3709259;77;98922;-94
2022/01/02 13:10:53;;;;;;;16.87;8.73;;;;;;;10.21;100.00;100085.77;3740075;77;98792;-94
2022/01/02 13:15:54;;;;;;;18.73;9.57;;;;;;;10.24;100.00;100073.21;3632459;78;99518;-92
2022/01/02 13:20:55;;;;;;;18.30;9.33;;;;;;;10.26;100.00;100052.38;3604636;80;99383;-94
2022/01/02 13:25:57;;;;;;;21.83;11.13;;;;;;;10.29;100.00;100039.25;3665086;78;99551;-92
2022/01/02 13:31:00;;;;;;;23.20;11.87;;;;;;;10.31;100.00;100041.02;3689853;79;99335;-91
2022/01/02 13:36:13;;;;;;;21.40;10.85;;;;;;;10.32;100.00;100039.87;3737258;77;99751;-93
2022/01/02 13:41:13;;;;;;;22.77;11.30;;;;;;;10.35;100.00;100031.44;3733311;77;99005;-94
2022/01/02 13:46:14;;;;;;;21.03;10.67;;;;;;;10.37;100.00;100026.33;3785327;77;99113;-92
2022/01/02 13:51:25;;;;;;;23.73;10.43;;;;;;;10.38;100.00;100030.08;3685024;77;99629;-93
2022/01/02 13:56:23;;;;;;;21.45;11.40;;;;;;;10.39;100.00;100022.02;3764549;77;99810;-94
2022/01/02 14:01:33;;;;;;;21.37;11.70;;;;;;;10.41;100.00;100007.28;3708289;77;99863;-93
2022/01/02 14:06:38;;;;;;;21.85;12.37;;;;;;;10.41;100.00;99996.28;3715299;78;99812;-92
2022/01/02 14:11:41;;;;;;;23.53;11.10;;;;;;;10.38;100.00;99982.51;3693950;77;99577;-94
2022/01/02 14:22:12;;;;;;;18.87;10.07;;;;;;;10.31;100.00;99950.86;3726342;77;98903;-92
2022/01/02 14:27:19;;;;;;;21.57;11.20;;;;;;;10.27;100.00;99937.09;3773731;76;99413;-93
2022/01/02 14:32:23;;;;;;;22.98;10.90;;;;;;;10.25;100.00;99932.55;3745393;77;99110;-92
2022/01/02 14:37:25;;;;;;;22.73;13.43;;;;;;;10.24;100.00;99919.98;3600511;80;99613;-94
2022/01/02 14:42:26;;;;;;;19.87;10.97;;;;;;;10.21;100.00;99908.39;3709605;77;98774;-90
2022/01/02 14:47:28;;;;;;;26.53;13.37;;;;;;;10.19;100.00;99906.59;3698875;78;99624;-95
2022/01/02 14:52:35;;;;;;;24.77;12.47;;;;;;;10.15;100.00;99898.91;3768832;76;99173;-90
2022/01/02 14:57:36;;;;;;;22.13;11.30;;;;;;;10.13;100.00;99890.84;3776191;77;99476;-94
2022/01/02 15:02:38;;;;;;;25.03;10.70;;;;;;;10.08;100.00;99886.52;3766574;76;99207;-93
2022/01/02 15:07:46;;;;;;;22.25;12.20;;;;;;;10.05;100.00;99876.31;3750658;77;99662;-90
2022/01/02 15:12:47;;;;;;;22.05;11.05;;;;;;;10.03;100.00;99843.47;3773784;76;99184;-90
2022/01/02 15:17:48;;;;;;;23.83;13.43;;;;;;;10.01;100.00;99841.68;3772254;77;99228;-91
2022/01/02 15:22:52;;;;;;;24.60;11.37;;;;;;;9.99;100.00;99817.92;3763173;76;98815;-91
2022/01/02 15:28:00;;;;;;;22.45;11.65;;;;;;;9.97;100.00;99801.81;3747550;77;99151;-89
2022/01/02 15:33:04;;;;;;;27.10;13.70;;;;;;;9.95;100.00;99791.80;3760161;76;99219;-89
2022/01/02 15:38:05;;;;;;;28.23;13.15;;;;;;;9.95;100.00;99791.80;3779924;76;99411;-86
2022/01/02 15:43:07;;;;;;;28.00;15.67;;;;;;;9.95;100.00;99793.18;3783792;76;99404;-90
2022/01/02 15:48:08;;;;;;;28.62;14.13;;;;;;;9.96;100.00;99800.82;3761368;76;98995;-90
2022/01/02 15:53:09;;;;;;;25.27;12.27;;;;;;;9.97;100.00;99809.29;3778025;76;31614;-88
2022/01/02 15:58:09;;;;;;;27.73;12.63;;;;;;;9.98;100.00;99818.50;3770038;77;98849;-89
2022/01/02 16:03:10;;;;;;;22.20;12.07;;;;;;;10.00;100.00;99818.92;3765985;77;98939;-94
2022/01/02 16:08:12;;;;;;;21.17;11.10;;;;;;;9.98;100.00;99839.11;3747611;76;99504;-94
2022/01/02 16:13:17;;;;;;;20.77;10.20;;;;;;;9.97;100.00;99843.05;3744518;77;99074;-95
2022/01/02 16:18:21;;;;;;;18.70;9.68;;;;;;;9.96;100.00;99822.81;3735960;75;98925;-90
2022/01/02 16:23:23;;;;;;;23.92;11.73;;;;;;;9.95;100.00;99793.75;3765987;77;99435;-92
2022/01/02 16:28:24;;;;;;;22.40;10.35;;;;;;;9.91;100.00;99795.12;3763845;76;98798;-89
2022/01/02 16:33:26;;;;;;;25.13;12.63;;;;;;;9.90;100.00;99755.65;3769340;76;98927;-91
2022/01/02 16:38:27;;;;;;;25.90;11.50;;;;;;;9.86;100.00;99739.15;3747214;76;98975;-95
2022/01/02 16:43:30;;;;;;;21.50;11.03;;;;;;;9.79;100.00;99719.91;3654726;79;98155;-94
2022/01/02 16:48:30;;;;;;;26.87;11.80;;;;;;;9.82;100.00;99717.73;3756130;76;99032;-90
2022/01/02 16:53:31;;;;;;;25.17;12.47;;;;;;;9.80;100.00;99720.09;3776379;76;98995;-88
2022/01/02 16:58:35;;;;;;;27.15;12.07;;;;;;;9.79;100.00;99675.94;3770913;77;98928;-93
2022/01/02 17:03:38;;;;;;;24.82;11.03;;;;;;;9.77;100.00;99651.40;3802338;75;98811;-91
2022/01/02 17:08:39;;;;;;;27.33;12.07;;;;;;;9.75;100.00;99655.90;3698020;78;99267;-90
2022/01/02 17:13:40;;;;;;;28.77;14.07;;;;;;;9.71;100.00;99659.22;3795285;76;98909;-86
2022/01/02 17:18:41;;;;;;;25.65;12.60;;;;;;;9.69;100.00;99645.10;3791070;75;99027;-89
2022/01/02 17:23:43;;;;;;;26.00;11.70;;;;;;;9.68;100.00;99644.91;3736122;77;99400;-91
2022/01/02 17:28:43;;;;;;;27.97;13.10;;;;;;;9.67;100.00;99648.83;3691102;78;98976;-87
2022/01/02 17:33:45;;;;;;;20.93;11.07;;;;;;;9.68;100.00;99645.48;3734892;78;98098;-89
2022/01/02 17:38:46;;;;;;;26.67;12.10;;;;;;;9.71;100.00;99669.44;3713715;78;98916;-86
2022/01/02 17:43:49;;;;;;;26.27;11.97;;;;;;;9.72;100.00;99653.95;3729037;77;99359;-88
2022/01/02 17:48:50;;;;;;;29.67;12.25;;;;;;;9.76;100.00;99677.31;3722508;78;99082;-90
2022/01/02 17:53:51;;;;;;;20.33;9.97;;;;;;;9.76;100.00;99665.71;3735856;78;99346;-89
2022/01/02 17:58:53;;;;;;;21.47;9.57;;;;;;;9.77;100.00;99664.53;3731240;78;99116;-90
2022/01/02 18:03:55;;;;;;;20.40;9.83;;;;;;;9.78;100.00;99657.88;3728526;78;98804;-90
2022/01/02 18:09:09;;;;;;;22.17;10.23;;;;;;;9.78;100.00;99659.26;3722298;77;98675;-92
2022/01/02 18:14:07;;;;;;;22.52;9.30;;;;;;;9.82;100.00;99655.91;3702364;76;99076;-90
2022/01/02 18:19:12;;;;;;;16.57;6.83;;;;;;;9.85;100.00;99666.70;3665592;78;98987;-92
2022/01/02 18:24:18;;;;;;;17.45;8.10;;;;;;;9.87;100.00;99664.38;3748408;77;99049;-93
2022/01/02 18:29:26;;;;;;;16.70;7.85;;;;;;;9.90;100.00;99660.25;3783106;76;99072;-93
2022/01/02 18:34:27;;;;;;;16.67;7.13;;;;;;;9.86;100.00;99631.97;3769685;76;98566;-90
2022/01/02 18:39:34;;;;;;;16.37;7.77;;;;;;;9.97;100.00;99651.23;3711377;77;98726;-87
2022/01/02 18:44:35;;;;;;;20.10;8.18;;;;;;;10.00;100.00;99638.87;3746166;77;99216;-94
2022/01/02 18:49:36;;;;;;;16.07;6.90;;;;;;;10.01;100.00;99639.64;3731134;77;99307;-92
2022/01/02 18:54:38;;;;;;;16.97;7.83;;;;;;;9.99;100.00;99622.19;3726463;78;99480;-92
2022/01/02 18:59:45;;;;;;;14.85;7.17;;;;;;;9.95;100.00;99618.64;3711578;78;98965;-93
2022/01/02 19:04:46;;;;;;;;;;;;;;;9.91;100.00;99626.09;3707334;77;26651;-95
2022/01/02 19:09:49;;;;;;;12.80;5.30;;;;;;;9.87;100.00;99619.80;3735335;77;84009;-96
2022/01/02 19:14:53;;;;;;;11.83;5.67;;;;;;;9.85;100.00;99616.66;3736684;77;98816;-95
2022/01/02 19:19:56;;;;;;;12.82;6.17;;;;;;;9.82;100.00;99613.31;3712492;77;99029;-95
2022/01/02 19:24:58;;;;;;;13.00;6.22;;;;;;;9.78;100.00;99593.88;3710824;78;98849;-93
2022/01/02 19:30:01;;;;;;;13.88;6.35;;;;;;;9.64;100.00;99591.91;3736263;77;99132;-93
2022/01/02 19:35:06;;;;;;;11.40;5.60;;;;;;;9.69;100.00;99604.46;3750738;77;30414;-96
2022/01/02 19:40:10;;;;;;;15.03;5.57;;;;;;;9.68;100.00;99598.20;3741582;77;98982;-94
2022/01/02 19:45:12;;;;;;;14.20;6.30;;;;;;;9.66;100.00;99605.27;3752350;76;99131;-95
2022/01/02 19:50:13;;;;;;;16.05;7.28;;;;;;;9.62;100.00;99609.38;3722917;77;99147;-96
2022/01/02 19:55:17;;;;;;;13.30;6.75;;;;;;;9.60;100.00;99604.08;3740178;77;98444;-96
2022/01/02 20:00:22;;;;;;;14.30;6.65;;;;;;;9.58;100.00;99597.59;3728202;77;98864;-96
2022/01/02 20:05:26;;;;;;;13.18;6.53;;;;;;;9.58;100.00;99609.16;3711678;77;31588;-95
2022/01/02 20:10:29;;;;;;;13.15;6.00;;;;;;;9.60;100.00;99604.08;3722045;77;99042;-94
2022/01/02 20:15:33;;;;;;;10.20;4.90;;;;;;;9.60;100.00;99594.46;3711727;78;99268;-94
2022/01/02 20:20:37;;;;;;;11.28;5.37;;;;;;;9.58;100.00;99601.72;3728254;77;98884;-93
2022/01/02 20:25:41;;;;;;;11.03;4.72;;;;;;;9.56;100.00;99587.59;3761625;77;99208;-95
2022/01/02 20:30:45;;;;;;;15.35;5.03;;;;;;;9.53;100.00;99585.61;3746656;77;98827;-91
2022/01/02 20:35:51;;;;;;;11.53;4.90;;;;;;;9.53;100.00;99595.23;3694417;78;98133;-93
2022/01/02 20:40:57;;;;;;;12.13;4.60;;;;;;;9.48;100.00;99587.38;3711644;78;98883;-93
2022/01/02 20:46:02;;;;;;;9.63;4.30;;;;;;;9.49;100.00;99590.91;3713223;78;98721;-93
2022/01/02 20:51:04;;;;;;;11.55;4.95;;;;;;;9.46;100.00;99582.86;3726474;77;99083;-94
2022/01/02 20:56:05;;;;;;;9.30;4.50;;;;;;;9.50;100.00;99575.42;3741188;77;97956;-92
2022/01/02 21:01:08;;;;;;;13.37;5.13;;;;;;;9.49;100.00;99575.20;3737099;77;98732;-94
2022/01/02 21:06:11;;;;;;;10.00;4.10;;;;;;;9.50;100.00;99581.49;3735382;77;98058;-92
2022/01/02 21:11:13;;;;;;;10.20;4.30;;;;;;;9.49;100.00;99594.42;3708532;78;98744;-94
2022/01/02 21:16:15;;;;;;;14.47;4.70;;;;;;;9.50;100.00;99602.89;3607529;79;97931;-92
2022/01/02 21:21:17;;;;;;;10.90;4.67;;;;;;;9.52;100.00;99588.17;3652506;78;99253;-94
2022/01/02 21:26:18;;;;;;;9.57;4.80;;;;;;;9.53;100.00;99584.24;3628066;79;99282;-93
2022/01/02 21:31:21;;;;;;;8.53;4.60;;;;;;;9.56;100.00;99596.41;3570069;79;99073;-91
2022/01/02 21:36:24;;;;;;;8.80;4.15;;;;;;;9.58;100.00;99585.23;3683240;78;99156;-93
2022/01/02 21:41:26;;;;;;;12.80;4.20;;;;;;;9.62;100.00;99587.98;3668545;78;98456;-95
2022/01/02 21:46:28;;;;;;;10.00;4.47;;;;;;;9.66;100.00;99596.41;3713036;78;98555;-92
2022/01/02 21:51:32;;;;;;;9.40;3.55;;;;;;;9.71;100.00;99594.66;3654334;78;98918;-95
2022/01/02 21:56:32;;;;;;;9.78;3.60;;;;;;;9.75;100.00;99587.20;3690092;78;98704;-95
2022/01/02 22:01:41;;;;;;;7.87;3.60;;;;;;;9.78;100.00;99584.27;3731203;76;98547;-92
2022/01/02 22:06:43;;;;;;;8.85;3.50;;;;;;;9.78;100.00;99585.64;3719344;77;99174;-95
2022/01/02 22:11:44;;;;;;;12.50;4.60;;;;;;;9.82;100.00;99590.56;3654651;79;99148;-94
2022/01/02 22:16:45;;;;;;;10.15;3.62;;;;;;;9.84;100.00;99586.82;3658794;79;32144;-93
2022/01/02 22:21:51;;;;;;;7.73;3.10;;;;;;;9.87;100.00;99585.44;3620700;79;99110;-92
2022/01/02 22:26:53;;;;;;;10.70;2.83;;;;;;;9.91;100.00;99601.36;3730276;78;99123;-90
2022/01/02 22:31:55;;;;;;;8.17;3.30;;;;;;;9.94;100.00;99592.91;3676719;79;99271;-93
2022/01/02 22:36:56;;;;;;;8.08;3.10;;;;;;;9.96;100.00;99594.67;3689380;78;98741;-87
2022/01/02 22:41:57;;;;;;;8.27;3.33;;;;;;;9.97;100.00;99597.64;3694726;76;99180;-88
2022/01/02 22:46:59;;;;;;;6.63;2.53;;;;;;;9.96;100.00;99583.67;3704795;79;34866;-90
2022/01/02 22:52:02;;;;;;;7.12;2.85;;;;;;;9.96;100.00;99584.48;3703331;78;98880;-90
2022/01/02 22:57:04;;;;;;;7.72;2.92;;;;;;;9.95;100.00;99587.61;3716643;78;99142;-93
2022/01/02 23:02:05;;;;;;;5.85;2.70;;;;;;;9.92;100.00;99593.30;3746473;77;98627;-89
2022/01/02 23:07:06;;;;;;;8.43;3.07;;;;;;;9.93;100.00;99591.34;3752986;77;99105;-90
2022/01/02 23:12:08;;;;;;;7.90;2.90;;;;;;;9.92;100.00;99600.78;3719082;76;99107;-89
2022/01/02 23:17:14;;;;;;;8.93;3.25;;;;;;;9.93;100.00;99620.21;3734313;77;30355;-88
2022/01/02 23:22:19;;;;;;;8.78;2.77;;;;;;;9.93;99.46;99611.96;3706065;77;98815;-90
2022/01/02 23:27:20;;;;;;;9.00;2.65;;;;;;;9.91;99.76;99608.80;3760962;76;98780;-88